sensor_id;sensor_type;location;lat;lon;timestamp;pressure;altitude;pressure_sealevel;temperature;humidity
30636;BME280;17400;52.392;9.750;2023-12-29T00:00:23;100055.34;;;10.92;94.07
30636;BME280;17400;52.392;9.750;2023-12-29T00:02:50;100058.44;;;10.96;93.08
30636;BME280;17400;52.392;9.750;2023-12-29T00:05:18;100049.31;;;10.90;91.35
30636;BME280;17400;52.392;9.750;2023-12-29T00:07:46;100054.53;;;10.92;91.39
30636;BME280;17400;52.392;9.750;2023-12-29T00:10:14;100058.47;;;10.89;91.67
30636;BME280;17400;52.392;9.750;2023-12-29T00:12:42;100059.56;;;10.81;91.41
30636;BME280;17400;52.392;9.750;2023-12-29T00:15:11;100056.44;;;10.78;91.39
30636;BME280;17400;52.392;9.750;2023-12-29T00:17:38;100046.47;;;10.78;91.65
30636;BME280;17400;52.392;9.750;2023-12-29T00:20:08;100053.13;;;10.76;91.57
30636;BME280;17400;52.392;9.750;2023-12-29T00:22:38;100042.91;;;10.78;92.19
30636;BME280;17400;52.392;9.750;2023-12-29T00:25:06;100057.09;;;10.73;92.08
30636;BME280;17400;52.392;9.750;2023-12-29T00:27:35;100042.31;;;10.76;92.44
30636;BME280;17400;52.392;9.750;2023-12-29T00:30:04;100046.88;;;10.75;92.75
30636;BME280;17400;52.392;9.750;2023-12-29T00:32:33;100044.38;;;10.74;92.64
30636;BME280;17400;52.392;9.750;2023-12-29T00:35:02;100029.63;;;10.70;93.32
30636;BME280;17400;52.392;9.750;2023-12-29T00:37:30;100032.72;;;10.73;93.72
30636;BME280;17400;52.392;9.750;2023-12-29T00:39:58;100047.31;;;10.72;94.62
30636;BME280;17400;52.392;9.750;2023-12-29T00:42:26;100039.81;;;10.74;94.72
30636;BME280;17400;52.392;9.750;2023-12-29T00:44:53;100026.88;;;10.76;95.21
30636;BME280;17400;52.392;9.750;2023-12-29T00:47:21;100027.09;;;10.75;95.11
30636;BME280;17400;52.392;9.750;2023-12-29T00:49:51;100032.50;;;10.75;95.72
30636;BME280;17400;52.392;9.750;2023-12-29T00:52:19;100029.38;;;10.78;95.84
30636;BME280;17400;52.392;9.750;2023-12-29T00:54:47;100025.22;;;10.75;96.28
30636;BME280;17400;52.392;9.750;2023-12-29T00:57:15;100022.28;;;10.77;96.52
30636;BME280;17400;52.392;9.750;2023-12-29T00:59:43;100024.78;;;10.78;96.57
30636;BME280;17400;52.392;9.750;2023-12-29T01:02:11;100013.38;;;10.70;97.54
30636;BME280;17400;52.392;9.750;2023-12-29T01:04:39;100000.63;;;10.77;97.80
30636;BME280;17400;52.392;9.750;2023-12-29T01:07:09;100003.56;;;10.75;98.17
30636;BME280;17400;52.392;9.750;2023-12-29T01:09:37;99999.41;;;10.73;98.73
30636;BME280;17400;52.392;9.750;2023-12-29T01:12:08;100016.91;;;10.70;98.94
30636;BME280;17400;52.392;9.750;2023-12-29T01:14:36;100011.44;;;10.77;99.19
30636;BME280;17400;52.392;9.750;2023-12-29T01:17:03;100012.31;;;10.77;99.13
30636;BME280;17400;52.392;9.750;2023-12-29T01:19:31;100011.91;;;10.74;100.00
30636;BME280;17400;52.392;9.750;2023-12-29T01:21:59;100007.69;;;10.78;100.00
30636;BME280;17400;52.392;9.750;2023-12-29T01:24:28;100020.84;;;10.81;100.00
30636;BME280;17400;52.392;9.750;2023-12-29T01:27:08;100004.38;;;10.82;100.00
30636;BME280;17400;52.392;9.750;2023-12-29T01:29:36;100008.09;;;10.81;100.00
30636;BME280;17400;52.392;9.750;2023-12-29T01:32:06;99994.78;;;10.80;100.00
30636;BME280;17400;52.392;9.750;2023-12-29T01:34:34;100004.78;;;10.79;100.00
30636;BME280;17400;52.392;9.750;2023-12-29T01:37:03;99989.59;;;10.78;100.00
30636;BME280;17400;52.392;9.750;2023-12-29T01:39:33;100005.22;;;10.76;100.00
30636;BME280;17400;52.392;9.750;2023-12-29T01:42:01;99992.72;;;10.75;100.00
30636;BME280;17400;52.392;9.750;2023-12-29T01:44:29;99991.09;;;10.74;100.00
30636;BME280;17400;52.392;9.750;2023-12-29T01:46:59;99997.72;;;10.78;100.00
30636;BME280;17400;52.392;9.750;2023-12-29T01:49:28;99995.63;;;10.80;100.00
30636;BME280;17400;52.392;9.750;2023-12-29T01:51:58;99992.91;;;10.80;100.00
30636;BME280;17400;52.392;9.750;2023-12-29T01:54:29;99982.94;;;10.81;100.00
30636;BME280;17400;52.392;9.750;2023-12-29T01:57:00;99981.25;;;10.80;100.00
30636;BME280;17400;52.392;9.750;2023-12-29T01:59:29;99982.75;;;10.76;100.00
30636;BME280;17400;52.392;9.750;2023-12-29T02:01:58;99996.50;;;10.74;100.00
30636;BME280;17400;52.392;9.750;2023-12-29T02:04:27;99981.91;;;10.75;100.00
30636;BME280;17400;52.392;9.750;2023-12-29T02:06:55;99965.28;;;10.72;100.00
30636;BME280;17400;52.392;9.750;2023-12-29T02:09:23;99978.59;;;10.73;100.00
30636;BME280;17400;52.392;9.750;2023-12-29T02:11:51;99957.78;;;10.67;100.00
30636;BME280;17400;52.392;9.750;2023-12-29T02:14:20;99952.78;;;10.71;100.00
30636;BME280;17400;52.392;9.750;2023-12-29T02:16:54;99957.78;;;10.67;100.00
30636;BME280;17400;52.392;9.750;2023-12-29T02:19:37;99957.34;;;10.70;100.00
30636;BME280;17400;52.392;9.750;2023-12-29T02:22:07;99961.13;;;10.69;100.00
30636;BME280;17400;52.392;9.750;2023-12-29T02:24:37;99946.91;;;10.74;100.00
30636;BME280;17400;52.392;9.750;2023-12-29T02:27:12;99941.28;;;10.75;100.00
30636;BME280;17400;52.392;9.750;2023-12-29T02:29:50;99942.19;;;10.69;100.00
30636;BME280;17400;52.392;9.750;2023-12-29T02:32:25;99946.50;;;10.70;100.00
30636;BME280;17400;52.392;9.750;2023-12-29T02:34:57;99948.63;;;10.68;100.00
30636;BME280;17400;52.392;9.750;2023-12-29T02:37:27;99948.19;;;10.71;100.00
30636;BME280;17400;52.392;9.750;2023-12-29T02:39:57;99942.78;;;10.71;100.00
30636;BME280;17400;52.392;9.750;2023-12-29T02:42:26;99938.41;;;10.70;100.00
30636;BME280;17400;52.392;9.750;2023-12-29T02:44:54;99938.41;;;10.70;100.00
30636;BME280;17400;52.392;9.750;2023-12-29T02:47:22;99922.16;;;10.70;100.00
30636;BME280;17400;52.392;9.750;2023-12-29T02:49:50;99932.78;;;10.72;100.00
30636;BME280;17400;52.392;9.750;2023-12-29T02:52:18;99918.63;;;10.70;100.00
30636;BME280;17400;52.392;9.750;2023-12-29T02:54:46;99924.84;;;10.70;100.00
30636;BME280;17400;52.392;9.750;2023-12-29T02:57:13;99920.06;;;10.72;100.00
30636;BME280;17400;52.392;9.750;2023-12-29T02:59:42;99925.72;;;10.71;100.00
30636;BME280;17400;52.392;9.750;2023-12-29T03:02:10;99921.13;;;10.71;100.00
30636;BME280;17400;52.392;9.750;2023-12-29T03:04:39;99903.06;;;10.65;100.00
30636;BME280;17400;52.392;9.750;2023-12-29T03:07:07;99908.47;;;10.65;100.00
30636;BME280;17400;52.392;9.750;2023-12-29T03:09:35;99918.00;;;10.67;100.00
30636;BME280;17400;52.392;9.750;2023-12-29T03:12:04;99919.28;;;10.65;100.00
30636;BME280;17400;52.392;9.750;2023-12-29T03:14:32;99909.88;;;10.67;100.00
30636;BME280;17400;52.392;9.750;2023-12-29T03:17:01;99909.06;;;10.67;100.00
30636;BME280;17400;52.392;9.750;2023-12-29T03:19:29;99900.72;;;10.69;100.00
30636;BME280;17400;52.392;9.750;2023-12-29T03:21:57;99902.38;;;10.70;100.00
30636;BME280;17400;52.392;9.750;2023-12-29T03:24:25;99890.75;;;10.69;100.00
30636;BME280;17400;52.392;9.750;2023-12-29T03:26:53;99886.97;;;10.70;100.00
30636;BME280;17400;52.392;9.750;2023-12-29T03:29:23;99881.53;;;10.70;100.00
30636;BME280;17400;52.392;9.750;2023-12-29T03:31:51;99893.00;;;10.72;100.00
30636;BME280;17400;52.392;9.750;2023-12-29T03:34:20;99888.22;;;10.74;100.00
30636;BME280;17400;52.392;9.750;2023-12-29T03:36:48;99887.13;;;10.75;100.00
30636;BME280;17400;52.392;9.750;2023-12-29T03:39:16;99887.13;;;10.75;100.00
30636;BME280;17400;52.392;9.750;2023-12-29T03:41:44;99879.03;;;10.75;100.00
30636;BME280;17400;52.392;9.750;2023-12-29T03:44:12;99879.03;;;10.75;100.00
30636;BME280;17400;52.392;9.750;2023-12-29T03:46:40;99888.81;;;10.76;100.00
30636;BME280;17400;52.392;9.750;2023-12-29T03:49:07;99894.22;;;10.76;100.00
30636;BME280;17400;52.392;9.750;2023-12-29T03:51:36;99886.31;;;10.75;100.00
30636;BME280;17400;52.392;9.750;2023-12-29T03:54:04;99874.69;;;10.74;100.00
30636;BME280;17400;52.392;9.750;2023-12-29T03:56:32;99866.56;;;10.74;100.00
30636;BME280;17400;52.392;9.750;2023-12-29T03:59:00;99869.84;;;10.76;100.00
30636;BME280;17400;52.392;9.750;2023-12-29T04:01:33;99873.59;;;10.75;100.00
30636;BME280;17400;52.392;9.750;2023-12-29T04:04:01;99890.69;;;10.76;100.00
30636;BME280;17400;52.392;9.750;2023-12-29T04:06:29;99884.09;;;10.65;100.00
30636;BME280;17400;52.392;9.750;2023-12-29T04:08:58;99868.91;;;10.64;100.00
30636;BME280;17400;52.392;9.750;2023-12-29T04:11:26;99860.78;;;10.64;100.00
30636;BME280;17400;52.392;9.750;2023-12-29T04:13:54;99858.31;;;10.62;100.00
30636;BME280;17400;52.392;9.750;2023-12-29T04:16:22;99863.31;;;10.59;100.00
30636;BME280;17400;52.392;9.750;2023-12-29T04:18:49;99862.28;;;10.60;100.00
30636;BME280;17400;52.392;9.750;2023-12-29T04:21:17;99858.34;;;10.56;100.00
30636;BME280;17400;52.392;9.750;2023-12-29T04:23:45;99860.63;;;10.59;100.00
30636;BME280;17400;52.392;9.750;2023-12-29T04:26:14;99862.09;;;10.55;100.00
30636;BME280;17400;52.392;9.750;2023-12-29T04:28:42;99885.00;;;10.52;100.00
30636;BME280;17400;52.392;9.750;2023-12-29T04:31:10;99870.03;;;10.49;100.00
30636;BME280;17400;52.392;9.750;2023-12-29T04:33:38;99861.69;;;10.51;100.00
30636;BME280;17400;52.392;9.750;2023-12-29T04:36:06;99888.97;;;10.49;100.00
30636;BME280;17400;52.392;9.750;2023-12-29T04:38:34;99873.34;;;10.52;100.00
30636;BME280;17400;52.392;9.750;2023-12-29T04:41:01;99872.69;;;10.56;100.00
30636;BME280;17400;52.392;9.750;2023-12-29T04:43:30;99868.78;;;10.52;100.00
30636;BME280;17400;52.392;9.750;2023-12-29T04:45:58;99865.84;;;10.54;100.00
30636;BME280;17400;52.392;9.750;2023-12-29T04:48:27;99862.09;;;10.55;100.00
30636;BME280;17400;52.392;9.750;2023-12-29T04:50:54;99867.94;;;10.52;100.00
30636;BME280;17400;52.392;9.750;2023-12-29T04:53:22;99876.66;;;10.54;100.00
30636;BME280;17400;52.392;9.750;2023-12-29T04:55:50;99868.31;;;10.55;100.00
30636;BME280;17400;52.392;9.750;2023-12-29T04:58:18;99875.00;;;10.53;100.00
30636;BME280;17400;52.392;9.750;2023-12-29T05:00:47;99870.00;;;10.56;100.00
30636;BME280;17400;52.392;9.750;2023-12-29T05:03:15;99877.94;;;10.51;100.00
30636;BME280;17400;52.392;9.750;2023-12-29T05:05:43;99886.88;;;10.52;100.00
30636;BME280;17400;52.392;9.750;2023-12-29T05:08:11;99883.34;;;10.51;100.00
30636;BME280;17400;52.392;9.750;2023-12-29T05:10:39;99885.00;;;10.52;100.00
30636;BME280;17400;52.392;9.750;2023-12-29T05:13:07;99894.78;;;10.53;100.00
30636;BME280;17400;52.392;9.750;2023-12-29T05:15:34;99886.69;;;10.46;100.00
30636;BME280;17400;52.392;9.750;2023-12-29T05:18:04;99887.75;;;10.45;100.00
30636;BME280;17400;52.392;9.750;2023-12-29T05:20:32;99888.38;;;10.41;100.00
30636;BME280;17400;52.392;9.750;2023-12-29T05:23:00;99885.47;;;10.42;100.00
30636;BME280;17400;52.392;9.750;2023-12-29T05:25:28;99889.44;;;10.40;100.00
30636;BME280;17400;52.392;9.750;2023-12-29T05:27:55;99890.28;;;10.40;100.00
30636;BME280;17400;52.392;9.750;2023-12-29T05:30:24;99898.00;;;10.37;100.00
30636;BME280;17400;52.392;9.750;2023-12-29T05:32:53;99885.69;;;10.34;100.00
30636;BME280;17400;52.392;9.750;2023-12-29T05:35:22;99886.94;;;10.38;100.00
30636;BME280;17400;52.392;9.750;2023-12-29T05:37:50;99879.28;;;10.35;100.00
30636;BME280;17400;52.392;9.750;2023-12-29T05:40:17;99890.50;;;10.39;100.00
30636;BME280;17400;52.392;9.750;2023-12-29T05:42:45;99880.50;;;10.39;100.00
30636;BME280;17400;52.392;9.750;2023-12-29T05:45:15;99882.13;;;10.47;100.00
30636;BME280;17400;52.392;9.750;2023-12-29T05:47:43;99872.13;;;10.47;100.00
30636;BME280;17400;52.392;9.750;2023-12-29T05:50:11;99875.72;;;10.41;100.00
30636;BME280;17400;52.392;9.750;2023-12-29T05:52:40;99871.75;;;10.44;100.00
30636;BME280;17400;52.392;9.750;2023-12-29T05:55:08;99871.94;;;10.42;100.00
30636;BME280;17400;52.392;9.750;2023-12-29T05:57:35;99874.63;;;10.42;100.00
30636;BME280;17400;52.392;9.750;2023-12-29T06:00:04;99881.53;;;10.38;100.00
30636;BME280;17400;52.392;9.750;2023-12-29T06:02:31;99877.16;;;10.37;100.00
30636;BME280;17400;52.392;9.750;2023-12-29T06:04:59;99877.34;;;10.42;100.00
30636;BME280;17400;52.392;9.750;2023-12-29T06:07:27;99878.00;;;10.38;100.00
30636;BME280;17400;52.392;9.750;2023-12-29T06:09:56;99885.69;;;10.41;100.00
30636;BME280;17400;52.392;9.750;2023-12-29T06:12:24;99872.38;;;10.39;100.00
30636;BME280;17400;52.392;9.750;2023-12-29T06:14:51;99868.84;;;10.39;100.00
30636;BME280;17400;52.392;9.750;2023-12-29T06:17:19;99894.66;;;10.41;100.00
30636;BME280;17400;52.392;9.750;2023-12-29T06:19:47;99891.53;;;10.38;100.00
30636;BME280;17400;52.392;9.750;2023-12-29T06:22:15;99896.28;;;10.42;100.00
30636;BME280;17400;52.392;9.750;2023-12-29T06:24:43;99904.81;;;10.46;100.00
30636;BME280;17400;52.392;9.750;2023-12-29T06:27:12;99892.09;;;10.46;100.00
30636;BME280;17400;52.392;9.750;2023-12-29T06:29:41;99903.38;;;10.43;100.00
30636;BME280;17400;52.392;9.750;2023-12-29T06:32:08;99899.22;;;10.41;100.00
30636;BME280;17400;52.392;9.750;2023-12-29T06:34:36;99894.81;;;10.46;100.00
30636;BME280;17400;52.392;9.750;2023-12-29T06:37:04;99903.38;;;10.43;100.00
30636;BME280;17400;52.392;9.750;2023-12-29T06:39:32;99898.63;;;10.39;100.00
30636;BME280;17400;52.392;9.750;2023-12-29T06:41:59;99892.53;;;10.43;100.00
30636;BME280;17400;52.392;9.750;2023-12-29T06:44:29;99896.91;;;10.44;100.00
30636;BME280;17400;52.392;9.750;2023-12-29T06:46:56;99893.16;;;10.45;100.00
30636;BME280;17400;52.392;9.750;2023-12-29T06:49:24;99888.78;;;10.44;100.00
30636;BME280;17400;52.392;9.750;2023-12-29T06:51:53;99890.47;;;10.45;100.00
30636;BME280;17400;52.392;9.750;2023-12-29T06:54:21;99887.97;;;10.44;100.00
30636;BME280;17400;52.392;9.750;2023-12-29T06:56:49;99887.97;;;10.37;100.00
30636;BME280;17400;52.392;9.750;2023-12-29T06:59:16;99900.91;;;10.35;100.00
30636;BME280;17400;52.392;9.750;2023-12-29T07:01:47;99892.13;;;10.40;100.00
30636;BME280;17400;52.392;9.750;2023-12-29T07:04:15;99904.63;;;10.41;100.00
30636;BME280;17400;52.392;9.750;2023-12-29T07:06:43;99902.59;;;10.36;100.00
30636;BME280;17400;52.392;9.750;2023-12-29T07:09:11;99895.91;;;10.39;100.00
30636;BME280;17400;52.392;9.750;2023-12-29T07:11:39;99899.66;;;10.38;100.00
30636;BME280;17400;52.392;9.750;2023-12-29T07:14:06;99904.22;;;10.44;100.00
30636;BME280;17400;52.392;9.750;2023-12-29T07:16:34;99919.16;;;10.46;100.00
30636;BME280;17400;52.392;9.750;2023-12-29T07:19:03;99910.44;;;10.44;100.00
30636;BME280;17400;52.392;9.750;2023-12-29T07:21:31;99915.03;;;10.44;100.00
30636;BME280;17400;52.392;9.750;2023-12-29T07:23:59;99914.63;;;10.40;100.00
30636;BME280;17400;52.392;9.750;2023-12-29T07:26:27;99906.31;;;10.35;100.00
30636;BME280;17400;52.392;9.750;2023-12-29T07:28:54;99899.00;;;10.42;100.00
30636;BME280;17400;52.392;9.750;2023-12-29T07:31:23;99908.78;;;10.43;100.00
30636;BME280;17400;52.392;9.750;2023-12-29T07:33:52;99899.19;;;10.47;100.00
30636;BME280;17400;52.392;9.750;2023-12-29T07:36:21;99902.09;;;10.46;100.00
30636;BME280;17400;52.392;9.750;2023-12-29T07:38:49;99910.00;;;10.47;100.00
30636;BME280;17400;52.392;9.750;2023-12-29T07:41:17;99905.44;;;10.48;100.00
30636;BME280;17400;52.392;9.750;2023-12-29T07:43:45;99898.75;;;10.50;100.00
30636;BME280;17400;52.392;9.750;2023-12-29T07:46:12;99921.84;;;10.53;100.00
30636;BME280;17400;52.392;9.750;2023-12-29T07:48:40;99917.91;;;10.56;100.00
30636;BME280;17400;52.392;9.750;2023-12-29T07:51:08;99930.78;;;10.54;100.00
30636;BME280;17400;52.392;9.750;2023-12-29T07:53:37;99911.44;;;10.50;100.00
30636;BME280;17400;52.392;9.750;2023-12-29T07:56:07;99929.97;;;10.53;100.00
30636;BME280;17400;52.392;9.750;2023-12-29T07:58:35;99933.50;;;10.54;100.00
30636;BME280;17400;52.392;9.750;2023-12-29T08:01:05;99927.41;;;10.58;100.00
30636;BME280;17400;52.392;9.750;2023-12-29T08:03:33;99933.69;;;10.59;100.00
30636;BME280;17400;52.392;9.750;2023-12-29T08:06:02;99939.50;;;10.62;100.00
30636;BME280;17400;52.392;9.750;2023-12-29T08:08:30;99950.09;;;10.64;100.00
30636;BME280;17400;52.392;9.750;2023-12-29T08:10:59;99950.72;;;10.66;100.00
30636;BME280;17400;52.392;9.750;2023-12-29T08:13:27;99951.16;;;10.63;100.00
30636;BME280;17400;52.392;9.750;2023-12-29T08:15:55;99943.66;;;10.65;100.00
30636;BME280;17400;52.392;9.750;2023-12-29T08:18:23;99945.28;;;10.66;100.00
30636;BME280;17400;52.392;9.750;2023-12-29T08:20:51;99950.72;;;10.66;100.00
30636;BME280;17400;52.392;9.750;2023-12-29T08:23:19;99944.06;;;10.62;100.00
30636;BME280;17400;52.392;9.750;2023-12-29T08:25:47;99954.25;;;10.66;100.00
30636;BME280;17400;52.392;9.750;2023-12-29T08:28:16;99948.63;;;10.68;100.00
30636;BME280;17400;52.392;9.750;2023-12-29T08:30:44;99955.50;;;10.71;100.00
30636;BME280;17400;52.392;9.750;2023-12-29T08:33:12;99969.44;;;10.74;100.00
30636;BME280;17400;52.392;9.750;2023-12-29T08:35:41;99962.94;;;10.75;100.00
30636;BME280;17400;52.392;9.750;2023-12-29T08:38:10;99964.38;;;10.78;100.00
30636;BME280;17400;52.392;9.750;2023-12-29T08:40:37;99956.91;;;10.80;100.00
30636;BME280;17400;52.392;9.750;2023-12-29T08:43:05;99958.75;;;10.79;100.00
30636;BME280;17400;52.392;9.750;2023-12-29T08:45:34;99959.38;;;10.81;100.00
30636;BME280;17400;52.392;9.750;2023-12-29T08:48:04;99950.41;;;10.88;100.00
30636;BME280;17400;52.392;9.750;2023-12-29T08:50:32;99943.91;;;10.89;100.00
30636;BME280;17400;52.392;9.750;2023-12-29T08:53:00;99940.16;;;10.90;100.00
30636;BME280;17400;52.392;9.750;2023-12-29T08:55:28;99925.34;;;10.92;100.00
30636;BME280;17400;52.392;9.750;2023-12-29T08:57:55;99939.75;;;10.93;100.00
30636;BME280;17400;52.392;9.750;2023-12-29T09:00:24;99936.00;;;10.87;100.00
30636;BME280;17400;52.392;9.750;2023-12-29T09:02:53;99920.78;;;10.93;100.00
30636;BME280;17400;52.392;9.750;2023-12-29T09:05:21;99918.66;;;10.95;100.00
30636;BME280;17400;52.392;9.750;2023-12-29T09:07:48;99924.09;;;10.95;100.00
30636;BME280;17400;52.392;9.750;2023-12-29T09:10:16;99924.72;;;10.97;100.00
30636;BME280;17400;52.392;9.750;2023-12-29T09:12:44;99926.34;;;10.98;100.00
30636;BME280;17400;52.392;9.750;2023-12-29T09:15:12;99930.09;;;11.04;100.00
30636;BME280;17400;52.392;9.750;2023-12-29T09:17:40;99921.34;;;11.02;100.00
30636;BME280;17400;52.392;9.750;2023-12-29T09:20:10;99939.47;;;11.01;100.00
30636;BME280;17400;52.392;9.750;2023-12-29T09:22:38;99943.22;;;11.00;100.00
30636;BME280;17400;52.392;9.750;2023-12-29T09:25:06;99935.91;;;11.00;100.00
30636;BME280;17400;52.392;9.750;2023-12-29T09:27:34;99942.81;;;10.96;100.00
30636;BME280;17400;52.392;9.750;2023-12-29T09:30:02;99935.53;;;10.97;100.00
30636;BME280;17400;52.392;9.750;2023-12-29T09:32:30;99946.16;;;10.98;100.00
30636;BME280;17400;52.392;9.750;2023-12-29T09:34:58;99953.00;;;11.01;100.00
30636;BME280;17400;52.392;9.750;2023-12-29T09:37:27;99940.91;;;11.04;100.00
30636;BME280;17400;52.392;9.750;2023-12-29T09:39:55;99944.66;;;11.03;100.00
30636;BME280;17400;52.392;9.750;2023-12-29T09:42:24;99963.22;;;10.99;100.00
30636;BME280;17400;52.392;9.750;2023-12-29T09:44:55;99970.53;;;10.98;100.00
30636;BME280;17400;52.392;9.750;2023-12-29T09:47:24;99953.25;;;10.99;100.00
30636;BME280;17400;52.392;9.750;2023-12-29T09:49:53;99954.91;;;10.94;100.00
30636;BME280;17400;52.392;9.750;2023-12-29T09:52:22;99953.75;;;10.83;100.00
30636;BME280;17400;52.392;9.750;2023-12-29T09:54:52;99976.84;;;10.86;100.00
30636;BME280;17400;52.392;9.750;2023-12-29T09:57:21;99979.38;;;10.80;100.00
30636;BME280;17400;52.392;9.750;2023-12-29T09:59:49;99981.91;;;10.75;100.00
30636;BME280;17400;52.392;9.750;2023-12-29T10:02:20;99974.44;;;10.71;100.00
30636;BME280;17400;52.392;9.750;2023-12-29T10:04:48;99961.97;;;10.63;100.00
30636;BME280;17400;52.392;9.750;2023-12-29T10:07:20;99957.00;;;10.60;100.00
30636;BME280;17400;52.392;9.750;2023-12-29T10:09:54;99943.47;;;10.60;100.00
30636;BME280;17400;52.392;9.750;2023-12-29T10:12:23;99949.94;;;10.59;100.00
30636;BME280;17400;52.392;9.750;2023-12-29T10:14:57;99956.78;;;10.61;100.00
30636;BME280;17400;52.392;9.750;2023-12-29T10:17:35;99959.94;;;10.52;100.00
30636;BME280;17400;52.392;9.750;2023-12-29T10:20:25;99952.44;;;10.54;100.00
30636;BME280;17400;52.392;9.750;2023-12-29T10:23:04;99953.94;;;10.49;100.00
30636;BME280;17400;52.392;9.750;2023-12-29T10:25:34;99950.00;;;10.45;100.00
30636;BME280;17400;52.392;9.750;2023-12-29T10:28:02;99963.09;;;10.48;100.00
30636;BME280;17400;52.392;9.750;2023-12-29T10:30:31;99969.16;;;10.44;100.00
30636;BME280;17400;52.392;9.750;2023-12-29T10:33:01;99977.47;;;10.42;100.00
30636;BME280;17400;52.392;9.750;2023-12-29T10:35:30;99978.72;;;10.40;100.00
30636;BME280;17400;52.392;9.750;2023-12-29T10:38:08;99974.53;;;10.50;100.00
30636;BME280;17400;52.392;9.750;2023-12-29T10:40:37;99952.84;;;10.57;100.00
30636;BME280;17400;52.392;9.750;2023-12-29T10:43:05;99955.53;;;10.64;100.00
30636;BME280;17400;52.392;9.750;2023-12-29T10:45:35;99942.81;;;10.64;100.00
30636;BME280;17400;52.392;9.750;2023-12-29T10:48:05;99947.78;;;10.74;100.00
30636;BME280;17400;52.392;9.750;2023-12-29T10:50:42;99939.75;;;10.86;100.00
30636;BME280;17400;52.392;9.750;2023-12-29T10:53:34;99946.06;;;10.80;100.00
30636;BME280;17400;52.392;9.750;2023-12-29T10:56:16;99933.38;;;10.74;100.00
30636;BME280;17400;52.392;9.750;2023-12-29T10:58:56;99927.78;;;10.69;100.00
30636;BME280;17400;52.392;9.750;2023-12-29T11:01:25;99909.91;;;10.61;100.00
30636;BME280;17400;52.392;9.750;2023-12-29T11:04:04;99907.06;;;10.56;100.00
30636;BME280;17400;52.392;9.750;2023-12-29T11:06:40;99894.56;;;10.55;100.00
30636;BME280;17400;52.392;9.750;2023-12-29T11:09:11;99902.72;;;10.48;100.00
30636;BME280;17400;52.392;9.750;2023-12-29T11:11:39;99897.72;;;10.45;100.00
30636;BME280;17400;52.392;9.750;2023-12-29T11:14:09;99901.28;;;10.45;100.00
30636;BME280;17400;52.392;9.750;2023-12-29T11:16:37;99903.53;;;10.48;100.00
30636;BME280;17400;52.392;9.750;2023-12-29T11:19:07;99895.84;;;10.52;100.00
30636;BME280;17400;52.392;9.750;2023-12-29T11:21:37;99896.88;;;10.51;100.00
30636;BME280;17400;52.392;9.750;2023-12-29T11:24:05;99891.25;;;10.53;100.00
30636;BME280;17400;52.392;9.750;2023-12-29T11:26:35;99896.25;;;10.49;100.00
30636;BME280;17400;52.392;9.750;2023-12-29T11:29:04;99891.06;;;10.47;100.00
30636;BME280;17400;52.392;9.750;2023-12-29T11:31:32;99883.34;;;10.51;100.00
30636;BME280;17400;52.392;9.750;2023-12-29T11:34:07;99887.91;;;10.57;100.00
30636;BME280;17400;52.392;9.750;2023-12-29T11:36:40;99876.84;;;10.59;100.00
30636;BME280;17400;52.392;9.750;2023-12-29T11:39:16;99888.06;;;10.62;100.00
30636;BME280;17400;52.392;9.750;2023-12-29T11:42:00;99882.00;;;10.67;100.00
30636;BME280;17400;52.392;9.750;2023-12-29T11:44:29;99889.03;;;10.75;100.00
30636;BME280;17400;52.392;9.750;2023-12-29T11:47:00;99886.97;;;10.70;100.00
30636;BME280;17400;52.392;9.750;2023-12-29T11:49:59;99890.34;;;10.65;100.00
30636;BME280;17400;52.392;9.750;2023-12-29T11:52:34;99888.84;;;10.70;100.00
30636;BME280;17400;52.392;9.750;2023-12-29T11:55:08;99896.34;;;10.67;100.00
30636;BME280;17400;52.392;9.750;2023-12-29T11:57:37;99896.97;;;10.70;100.00
30636;BME280;17400;52.392;9.750;2023-12-29T12:00:07;99886.97;;;10.70;100.00
30636;BME280;17400;52.392;9.750;2023-12-29T12:02:36;99895.09;;;10.70;100.00
30636;BME280;17400;52.392;9.750;2023-12-29T12:05:05;99883.84;;;10.73;100.00
30636;BME280;17400;52.392;9.750;2023-12-29T12:07:57;99877.34;;;10.81;100.00
30636;BME280;17400;52.392;9.750;2023-12-29T12:10:32;99863.56;;;10.82;100.00
30636;BME280;17400;52.392;9.750;2023-12-29T12:13:05;99867.94;;;10.83;100.00
30636;BME280;17400;52.392;9.750;2023-12-29T12:15:33;99868.09;;;10.89;100.00
30636;BME280;17400;52.392;9.750;2023-12-29T12:18:03;99866.88;;;10.84;100.00
30636;BME280;17400;52.392;9.750;2023-12-29T12:20:35;99873.09;;;10.92;100.00
30636;BME280;17400;52.392;9.750;2023-12-29T12:23:10;99866.81;;;10.91;100.00
30636;BME280;17400;52.392;9.750;2023-12-29T12:25:39;99871.81;;;10.94;100.00
30636;BME280;17400;52.392;9.750;2023-12-29T12:28:09;99870.97;;;10.94;100.00
30636;BME280;17400;52.392;9.750;2023-12-29T12:30:37;99873.69;;;10.94;100.00
30636;BME280;17400;52.392;9.750;2023-12-29T12:33:05;99880.75;;;10.95;100.00
30636;BME280;17400;52.392;9.750;2023-12-29T12:35:34;99882.88;;;10.93;100.00
30636;BME280;17400;52.392;9.750;2023-12-29T12:38:10;99872.41;;;10.96;100.00
30636;BME280;17400;52.392;9.750;2023-12-29T12:40:38;99871.41;;;10.91;100.00
30636;BME280;17400;52.392;9.750;2023-12-29T12:43:06;99881.38;;;10.97;100.00
30636;BME280;17400;52.392;9.750;2023-12-29T12:45:40;99874.75;;;10.93;100.00
30636;BME280;17400;52.392;9.750;2023-12-29T12:48:13;99876.63;;;10.92;100.00
30636;BME280;17400;52.392;9.750;2023-12-29T12:50:48;99883.69;;;10.93;100.00
30636;BME280;17400;52.392;9.750;2023-12-29T12:53:16;99889.09;;;10.93;100.00
30636;BME280;17400;52.392;9.750;2023-12-29T12:55:47;99888.28;;;10.93;100.00
30636;BME280;17400;52.392;9.750;2023-12-29T12:58:17;99892.47;;;10.89;100.00
30636;BME280;17400;52.392;9.750;2023-12-29T13:00:45;99897.47;;;10.92;100.00